CCA861 ZBAA-LSGG
Flight info
| Callsign | CCA861 |
|---|---|
| Flight time | N/A |
| Altitude | 36100 |
| Route | IDKEX2G IDKEX B339 ASILA A575 INTIK Y655 SEBRA/K0915S1160 Y655 AROGU A575 DARNO/K0915F380 P982 TR A308 ABK R104 BA R229 XV B228 LITUN N869 IBRIL/K0904F400 N869 UNISO L870 RANVA/N0491F400 L870 RESMO DCT LOGNA DCT KEDUX DCT BALIT/K0904F400 DCT KUNER/N0486F400 DCT BEZMI DCT GOVEN DCT GOBAX DCT TADUV DCT TABAT DCT IBAGA DCT DKB N869 TEDGO/N0488F410 N869 NATOR DCT LUTIX DCT BENOT |
| Aircraft | A359/H-SDE2E3GHIJ3J4J5LM1ORWXY/LB1D1 |
Departure
| Time | 2026-05-05 03:42 |
|---|---|
| Airport | Beijing Capital International Airport (ZBAA) |
Arrival
| Time | N/A |
|---|---|
| Airport | Geneva International Airport (LSGG) |
| Time | Latitude | Longitude | Altitude | Speed | Heading |
|---|---|---|---|---|---|
| 2026-05-05 03:21 | 40.07082 | 116.60510 | 130 ft | 0 kts | 83° |
| 2026-05-05 03:30 | 40.07080 | 116.60487 | 133 ft | 4 kts | 83° |
| 2026-05-05 03:30 | 40.07077 | 116.60452 | 134 ft | 4 kts | 83° |
| 2026-05-05 03:30 | 40.07074 | 116.60420 | 119 ft | 4 kts | 79° |
| 2026-05-05 03:30 | 40.07064 | 116.60395 | 124 ft | 4 kts | 13° |
| 2026-05-05 03:31 | 40.07039 | 116.60397 | 123 ft | 3 kts | 352° |
| 2026-05-05 03:31 | 40.07035 | 116.60398 | 125 ft | 0 kts | 353° |
| 2026-05-05 03:33 | 40.07036 | 116.60398 | 125 ft | 1 kts | 353° |
| 2026-05-05 03:33 | 40.07064 | 116.60393 | 124 ft | 7 kts | 353° |
| 2026-05-05 03:33 | 40.07137 | 116.60382 | 127 ft | 14 kts | 353° |
| 2026-05-05 03:34 | 40.07249 | 116.60364 | 125 ft | 18 kts | 353° |
| 2026-05-05 03:34 | 40.07336 | 116.60296 | 128 ft | 15 kts | 275° |
| 2026-05-05 03:34 | 40.07326 | 116.60160 | 126 ft | 15 kts | 264° |
| 2026-05-05 03:34 | 40.07380 | 116.60071 | 127 ft | 13 kts | 354° |
| 2026-05-05 03:35 | 40.07474 | 116.60064 | 126 ft | 14 kts | 356° |
| 2026-05-05 03:35 | 40.07572 | 116.60048 | 124 ft | 16 kts | 353° |
| 2026-05-05 03:35 | 40.07694 | 116.60028 | 125 ft | 19 kts | 353° |
| 2026-05-05 03:35 | 40.07838 | 116.60005 | 127 ft | 22 kts | 354° |
| 2026-05-05 03:36 | 40.08003 | 116.59981 | 126 ft | 25 kts | 353° |
| 2026-05-05 03:36 | 40.08186 | 116.59953 | 128 ft | 28 kts | 353° |
| 2026-05-05 03:36 | 40.08389 | 116.59922 | 128 ft | 30 kts | 353° |
| 2026-05-05 03:36 | 40.08599 | 116.59889 | 128 ft | 30 kts | 353° |
| 2026-05-05 03:37 | 40.08809 | 116.59856 | 126 ft | 30 kts | 353° |
| 2026-05-05 03:37 | 40.08968 | 116.59822 | 127 ft | 15 kts | 330° |
| 2026-05-05 03:37 | 40.08986 | 116.59731 | 127 ft | 4 kts | 265° |
| 2026-05-05 03:37 | 40.08985 | 116.59723 | 128 ft | 2 kts | 265° |
| 2026-05-05 03:38 | 40.08981 | 116.59667 | 130 ft | 8 kts | 264° |
| 2026-05-05 03:38 | 40.08979 | 116.59644 | 130 ft | 0 kts | 264° |
| 2026-05-05 03:39 | 40.08977 | 116.59628 | 130 ft | 7 kts | 262° |
| 2026-05-05 03:39 | 40.08936 | 116.59528 | 126 ft | 16 kts | 225° |
| 2026-05-05 03:39 | 40.08843 | 116.59499 | 127 ft | 7 kts | 173° |
| 2026-05-05 03:39 | 40.08839 | 116.59499 | 127 ft | 0 kts | 173° |
| 2026-05-05 03:41 | 40.08729 | 116.59517 | 127 ft | 45 kts | 173° |
| 2026-05-05 03:41 | 40.08222 | 116.59596 | 127 ft | 101 kts | 173° |
| 2026-05-05 03:41 | 40.07359 | 116.59730 | 128 ft | 148 kts | 173° |
| 2026-05-05 03:42 | 40.06231 | 116.59908 | 365 ft | 168 kts | 172° |
| 2026-05-05 03:42 | 40.05072 | 116.60077 | 923 ft | 166 kts | 173° |
| 2026-05-05 03:42 | 40.03916 | 116.60208 | 1451 ft | 173 kts | 173° |
| 2026-05-05 03:42 | 40.02637 | 116.60427 | 1688 ft | 198 kts | 169° |
| 2026-05-05 03:43 | 40.01194 | 116.60706 | 2038 ft | 219 kts | 173° |
| 2026-05-05 03:43 | 39.99602 | 116.60938 | 2369 ft | 241 kts | 175° |
| 2026-05-05 03:43 | 39.97925 | 116.61243 | 3010 ft | 246 kts | 173° |
| 2026-05-05 03:43 | 39.96206 | 116.61536 | 3553 ft | 251 kts | 177° |
| 2026-05-05 03:44 | 39.94466 | 116.61793 | 4138 ft | 252 kts | 179° |
| 2026-05-05 03:44 | 39.92740 | 116.62034 | 4771 ft | 254 kts | 179° |
| 2026-05-05 03:44 | 39.90976 | 116.62297 | 5346 ft | 256 kts | 179° |
| 2026-05-05 03:44 | 39.89197 | 116.62565 | 5977 ft | 258 kts | 179° |